sensor_id;sensor_type;location;lat;lon;timestamp;P1;durP1;ratioP1;P2;durP2;ratioP2
80127;SDS011;69440;52.118;5.408;2023-07-20T00:01:51;5.53;;;2.85;;
80127;SDS011;69440;52.118;5.408;2023-07-20T00:04:17;5.38;;;2.70;;
80127;SDS011;69440;52.118;5.408;2023-07-20T00:06:44;3.47;;;2.65;;
80127;SDS011;69440;52.118;5.408;2023-07-20T00:09:11;5.10;;;2.67;;
80127;SDS011;69440;52.118;5.408;2023-07-20T00:11:39;4.40;;;2.70;;
80127;SDS011;69440;52.118;5.408;2023-07-20T00:14:06;5.10;;;2.42;;
80127;SDS011;69440;52.118;5.408;2023-07-20T00:16:32;12.23;;;2.78;;
80127;SDS011;69440;52.118;5.408;2023-07-20T00:18:59;4.13;;;2.30;;
80127;SDS011;69440;52.118;5.408;2023-07-20T00:21:26;4.05;;;2.13;;
80127;SDS011;69440;52.118;5.408;2023-07-20T00:23:52;3.92;;;2.03;;
80127;SDS011;69440;52.118;5.408;2023-07-20T00:26:19;3.15;;;2.15;;
80127;SDS011;69440;52.118;5.408;2023-07-20T00:28:46;4.45;;;1.92;;
80127;SDS011;69440;52.118;5.408;2023-07-20T00:31:13;3.40;;;1.90;;
80127;SDS011;69440;52.118;5.408;2023-07-20T00:33:39;3.80;;;2.10;;
80127;SDS011;69440;52.118;5.408;2023-07-20T00:36:06;4.68;;;1.98;;
80127;SDS011;69440;52.118;5.408;2023-07-20T00:38:32;2.35;;;1.50;;
80127;SDS011;69440;52.118;5.408;2023-07-20T00:40:59;4.38;;;1.73;;
80127;SDS011;69440;52.118;5.408;2023-07-20T00:43:25;4.68;;;1.70;;
80127;SDS011;69440;52.118;5.408;2023-07-20T00:45:52;2.30;;;1.50;;
80127;SDS011;69440;52.118;5.408;2023-07-20T00:48:18;2.78;;;1.60;;
80127;SDS011;69440;52.118;5.408;2023-07-20T00:50:45;2.40;;;1.48;;
80127;SDS011;69440;52.118;5.408;2023-07-20T00:53:14;2.17;;;1.45;;
80127;SDS011;69440;52.118;5.408;2023-07-20T00:55:41;2.58;;;1.40;;
80127;SDS011;69440;52.118;5.408;2023-07-20T00:58:08;1.80;;;1.10;;
80127;SDS011;69440;52.118;5.408;2023-07-20T01:00:35;2.72;;;1.38;;
80127;SDS011;69440;52.118;5.408;2023-07-20T01:03:01;1.73;;;1.25;;
80127;SDS011;69440;52.118;5.408;2023-07-20T01:06:12;2.50;;;1.35;;
80127;SDS011;69440;52.118;5.408;2023-07-20T01:14:26;2.33;;;1.38;;
80127;SDS011;69440;52.118;5.408;2023-07-20T01:16:53;2.67;;;1.40;;
80127;SDS011;69440;52.118;5.408;2023-07-20T01:19:19;1.75;;;1.02;;
80127;SDS011;69440;52.118;5.408;2023-07-20T01:30:14;2.05;;;1.20;;
80127;SDS011;69440;52.118;5.408;2023-07-20T01:32:34;2.83;;;1.50;;
80127;SDS011;69440;52.118;5.408;2023-07-20T01:35:04;1.80;;;1.33;;
80127;SDS011;69440;52.118;5.408;2023-07-20T01:37:31;2.42;;;1.10;;
80127;SDS011;69440;52.118;5.408;2023-07-20T01:40:00;3.40;;;1.20;;
80127;SDS011;69440;52.118;5.408;2023-07-20T01:42:27;2.25;;;1.35;;
80127;SDS011;69440;52.118;5.408;2023-07-20T01:44:54;1.95;;;1.20;;
80127;SDS011;69440;52.118;5.408;2023-07-20T01:47:20;1.73;;;1.02;;
80127;SDS011;69440;52.118;5.408;2023-07-20T01:49:47;1.45;;;1.08;;
80127;SDS011;69440;52.118;5.408;2023-07-20T01:52:13;2.55;;;1.13;;
80127;SDS011;69440;52.118;5.408;2023-07-20T01:54:41;1.42;;;1.02;;
80127;SDS011;69440;52.118;5.408;2023-07-20T01:57:07;1.63;;;1.08;;
80127;SDS011;69440;52.118;5.408;2023-07-20T01:59:34;1.30;;;1.00;;
80127;SDS011;69440;52.118;5.408;2023-07-20T02:02:00;2.35;;;1.20;;
80127;SDS011;69440;52.118;5.408;2023-07-20T02:04:27;1.85;;;1.17;;
80127;SDS011;69440;52.118;5.408;2023-07-20T02:06:53;1.80;;;1.02;;
80127;SDS011;69440;52.118;5.408;2023-07-20T02:09:20;1.50;;;1.15;;
80127;SDS011;69440;52.118;5.408;2023-07-20T02:11:46;1.23;;;0.93;;
80127;SDS011;69440;52.118;5.408;2023-07-20T02:14:13;2.20;;;1.00;;
80127;SDS011;69440;52.118;5.408;2023-07-20T02:16:39;1.40;;;0.98;;
80127;SDS011;69440;52.118;5.408;2023-07-20T02:19:06;1.33;;;0.90;;
80127;SDS011;69440;52.118;5.408;2023-07-20T02:21:33;1.58;;;1.00;;
80127;SDS011;69440;52.118;5.408;2023-07-20T02:24:00;1.80;;;1.00;;
80127;SDS011;69440;52.118;5.408;2023-07-20T02:26:27;2.38;;;1.30;;
80127;SDS011;69440;52.118;5.408;2023-07-20T02:28:54;1.92;;;1.00;;
80127;SDS011;69440;52.118;5.408;2023-07-20T02:31:22;2.30;;;1.17;;
80127;SDS011;69440;52.118;5.408;2023-07-20T02:33:48;1.30;;;1.05;;
80127;SDS011;69440;52.118;5.408;2023-07-20T02:36:15;1.45;;;1.00;;
80127;SDS011;69440;52.118;5.408;2023-07-20T02:38:43;2.50;;;1.10;;
80127;SDS011;69440;52.118;5.408;2023-07-20T02:41:09;1.60;;;1.05;;
80127;SDS011;69440;52.118;5.408;2023-07-20T02:43:36;1.83;;;1.10;;
80127;SDS011;69440;52.118;5.408;2023-07-20T02:46:02;1.63;;;1.10;;
80127;SDS011;69440;52.118;5.408;2023-07-20T02:48:29;2.00;;;1.00;;
80127;SDS011;69440;52.118;5.408;2023-07-20T02:50:55;1.83;;;1.00;;
80127;SDS011;69440;52.118;5.408;2023-07-20T02:53:22;1.23;;;1.00;;
80127;SDS011;69440;52.118;5.408;2023-07-20T02:55:48;2.33;;;1.10;;
80127;SDS011;69440;52.118;5.408;2023-07-20T02:58:15;1.75;;;1.10;;
80127;SDS011;69440;52.118;5.408;2023-07-20T03:00:42;2.03;;;1.02;;
80127;SDS011;69440;52.118;5.408;2023-07-20T03:03:10;1.50;;;0.93;;
80127;SDS011;69440;52.118;5.408;2023-07-20T03:05:37;1.95;;;1.13;;
80127;SDS011;69440;52.118;5.408;2023-07-20T03:08:07;1.90;;;1.20;;
80127;SDS011;69440;52.118;5.408;2023-07-20T03:10:40;2.60;;;1.30;;
80127;SDS011;69440;52.118;5.408;2023-07-20T03:13:07;1.75;;;1.27;;
80127;SDS011;69440;52.118;5.408;2023-07-20T03:15:34;1.90;;;1.10;;
80127;SDS011;69440;52.118;5.408;2023-07-20T03:18:00;1.52;;;1.10;;
80127;SDS011;69440;52.118;5.408;2023-07-20T03:20:27;1.80;;;1.00;;
80127;SDS011;69440;52.118;5.408;2023-07-20T03:22:53;2.00;;;1.23;;
80127;SDS011;69440;52.118;5.408;2023-07-20T03:25:20;1.88;;;1.20;;
80127;SDS011;69440;52.118;5.408;2023-07-20T03:27:47;1.50;;;1.20;;
80127;SDS011;69440;52.118;5.408;2023-07-20T03:30:14;1.48;;;1.00;;
80127;SDS011;69440;52.118;5.408;2023-07-20T03:32:40;1.30;;;1.00;;
80127;SDS011;69440;52.118;5.408;2023-07-20T03:35:07;1.40;;;0.90;;
80127;SDS011;69440;52.118;5.408;2023-07-20T03:37:34;2.47;;;1.50;;
80127;SDS011;69440;52.118;5.408;2023-07-20T03:40:02;2.88;;;1.15;;
80127;SDS011;69440;52.118;5.408;2023-07-20T03:42:29;2.33;;;1.23;;
80127;SDS011;69440;52.118;5.408;2023-07-20T03:44:55;1.90;;;1.17;;
80127;SDS011;69440;52.118;5.408;2023-07-20T03:47:22;3.45;;;1.23;;
80127;SDS011;69440;52.118;5.408;2023-07-20T03:49:50;4.47;;;1.50;;
80127;SDS011;69440;52.118;5.408;2023-07-20T03:52:16;2.55;;;1.40;;
80127;SDS011;69440;52.118;5.408;2023-07-20T03:54:43;2.78;;;1.40;;
80127;SDS011;69440;52.118;5.408;2023-07-20T03:57:10;1.73;;;1.20;;
80127;SDS011;69440;52.118;5.408;2023-07-20T03:59:39;3.42;;;1.30;;
80127;SDS011;69440;52.118;5.408;2023-07-20T04:02:10;2.97;;;1.27;;
80127;SDS011;69440;52.118;5.408;2023-07-20T04:04:37;3.67;;;1.40;;
80127;SDS011;69440;52.118;5.408;2023-07-20T04:07:03;1.88;;;1.17;;
80127;SDS011;69440;52.118;5.408;2023-07-20T04:09:31;2.15;;;1.40;;
80127;SDS011;69440;52.118;5.408;2023-07-20T04:11:58;1.83;;;1.10;;
80127;SDS011;69440;52.118;5.408;2023-07-20T04:14:24;2.55;;;1.45;;
80127;SDS011;69440;52.118;5.408;2023-07-20T04:16:51;1.48;;;1.20;;
80127;SDS011;69440;52.118;5.408;2023-07-20T04:19:17;2.40;;;1.30;;
80127;SDS011;69440;52.118;5.408;2023-07-20T04:21:44;2.22;;;1.23;;
80127;SDS011;69440;52.118;5.408;2023-07-20T04:24:10;1.98;;;1.27;;
80127;SDS011;69440;52.118;5.408;2023-07-20T04:26:37;2.25;;;1.20;;
80127;SDS011;69440;52.118;5.408;2023-07-20T04:29:03;2.40;;;1.20;;
80127;SDS011;69440;52.118;5.408;2023-07-20T04:31:30;2.60;;;1.23;;
80127;SDS011;69440;52.118;5.408;2023-07-20T04:33:59;1.60;;;1.10;;
80127;SDS011;69440;52.118;5.408;2023-07-20T04:36:26;1.48;;;1.08;;
80127;SDS011;69440;52.118;5.408;2023-07-20T04:38:52;1.90;;;1.35;;
80127;SDS011;69440;52.118;5.408;2023-07-20T04:41:19;2.28;;;1.40;;
80127;SDS011;69440;52.118;5.408;2023-07-20T04:43:46;2.00;;;1.45;;
80127;SDS011;69440;52.118;5.408;2023-07-20T04:46:13;2.38;;;1.85;;
80127;SDS011;69440;52.118;5.408;2023-07-20T04:48:39;3.10;;;1.85;;
80127;SDS011;69440;52.118;5.408;2023-07-20T04:51:07;3.00;;;1.83;;
80127;SDS011;69440;52.118;5.408;2023-07-20T04:53:33;2.40;;;1.70;;
80127;SDS011;69440;52.118;5.408;2023-07-20T04:55:59;3.38;;;1.88;;
80127;SDS011;69440;52.118;5.408;2023-07-20T04:58:26;4.32;;;1.98;;
80127;SDS011;69440;52.118;5.408;2023-07-20T05:00:52;3.55;;;2.40;;
80127;SDS011;69440;52.118;5.408;2023-07-20T05:03:19;2.72;;;1.98;;
80127;SDS011;69440;52.118;5.408;2023-07-20T05:05:46;4.47;;;2.50;;
80127;SDS011;69440;52.118;5.408;2023-07-20T05:08:15;2.67;;;2.15;;
80127;SDS011;69440;52.118;5.408;2023-07-20T05:10:42;3.33;;;2.00;;
80127;SDS011;69440;52.118;5.408;2023-07-20T05:13:09;3.22;;;2.08;;
80127;SDS011;69440;52.118;5.408;2023-07-20T05:15:35;3.33;;;2.10;;
80127;SDS011;69440;52.118;5.408;2023-07-20T05:18:02;2.58;;;2.08;;
80127;SDS011;69440;52.118;5.408;2023-07-20T05:20:28;3.25;;;2.17;;
80127;SDS011;69440;52.118;5.408;2023-07-20T05:22:55;6.85;;;2.28;;
80127;SDS011;69440;52.118;5.408;2023-07-20T05:25:21;3.83;;;2.20;;
80127;SDS011;69440;52.118;5.408;2023-07-20T05:27:49;3.65;;;2.20;;
80127;SDS011;69440;52.118;5.408;2023-07-20T05:30:16;2.42;;;1.83;;
80127;SDS011;69440;52.118;5.408;2023-07-20T05:32:43;2.42;;;1.85;;
80127;SDS011;69440;52.118;5.408;2023-07-20T05:35:11;6.15;;;2.30;;
80127;SDS011;69440;52.118;5.408;2023-07-20T05:37:38;2.63;;;1.90;;
80127;SDS011;69440;52.118;5.408;2023-07-20T05:40:05;3.20;;;1.88;;
80127;SDS011;69440;52.118;5.408;2023-07-20T05:42:34;2.90;;;1.90;;
80127;SDS011;69440;52.118;5.408;2023-07-20T05:45:00;3.60;;;1.70;;
80127;SDS011;69440;52.118;5.408;2023-07-20T05:47:27;2.40;;;1.85;;
80127;SDS011;69440;52.118;5.408;2023-07-20T05:49:53;2.05;;;1.58;;
80127;SDS011;69440;52.118;5.408;2023-07-20T05:52:20;2.88;;;1.55;;
80127;SDS011;69440;52.118;5.408;2023-07-20T05:54:46;2.40;;;1.58;;
80127;SDS011;69440;52.118;5.408;2023-07-20T05:57:13;2.97;;;1.60;;
80127;SDS011;69440;52.118;5.408;2023-07-20T05:59:39;3.47;;;2.20;;
80127;SDS011;69440;52.118;5.408;2023-07-20T06:02:10;2.63;;;1.33;;
80127;SDS011;69440;52.118;5.408;2023-07-20T06:04:38;3.40;;;1.55;;
80127;SDS011;69440;52.118;5.408;2023-07-20T06:07:05;2.58;;;1.65;;
80127;SDS011;69440;52.118;5.408;2023-07-20T06:09:34;2.10;;;1.23;;
80127;SDS011;69440;52.118;5.408;2023-07-20T06:12:00;2.63;;;1.27;;
80127;SDS011;69440;52.118;5.408;2023-07-20T06:14:27;2.83;;;1.42;;
80127;SDS011;69440;52.118;5.408;2023-07-20T06:16:53;3.03;;;1.30;;
80127;SDS011;69440;52.118;5.408;2023-07-20T06:19:20;2.28;;;1.23;;
80127;SDS011;69440;52.118;5.408;2023-07-20T06:21:48;2.53;;;1.20;;
80127;SDS011;69440;52.118;5.408;2023-07-20T06:24:16;2.35;;;1.15;;
80127;SDS011;69440;52.118;5.408;2023-07-20T06:26:43;2.50;;;1.10;;
80127;SDS011;69440;52.118;5.408;2023-07-20T06:29:09;1.60;;;1.00;;
80127;SDS011;69440;52.118;5.408;2023-07-20T06:31:36;1.48;;;0.98;;
80127;SDS011;69440;52.118;5.408;2023-07-20T06:34:03;2.42;;;0.85;;
80127;SDS011;69440;52.118;5.408;2023-07-20T06:36:30;2.85;;;0.90;;
80127;SDS011;69440;52.118;5.408;2023-07-20T06:38:57;2.05;;;1.00;;
80127;SDS011;69440;52.118;5.408;2023-07-20T06:41:26;2.15;;;0.93;;
80127;SDS011;69440;52.118;5.408;2023-07-20T06:43:55;1.45;;;0.63;;
80127;SDS011;69440;52.118;5.408;2023-07-20T06:46:27;1.60;;;0.93;;
80127;SDS011;69440;52.118;5.408;2023-07-20T06:48:54;1.65;;;0.80;;
80127;SDS011;69440;52.118;5.408;2023-07-20T06:51:23;1.17;;;0.77;;
80127;SDS011;69440;52.118;5.408;2023-07-20T06:53:51;3.15;;;0.80;;
80127;SDS011;69440;52.118;5.408;2023-07-20T06:56:17;1.30;;;0.73;;
80127;SDS011;69440;52.118;5.408;2023-07-20T06:58:46;1.85;;;0.90;;
80127;SDS011;69440;52.118;5.408;2023-07-20T07:01:13;2.08;;;1.00;;
80127;SDS011;69440;52.118;5.408;2023-07-20T07:03:41;2.28;;;0.77;;
80127;SDS011;69440;52.118;5.408;2023-07-20T07:06:07;2.33;;;0.93;;
80127;SDS011;69440;52.118;5.408;2023-07-20T07:08:34;1.08;;;0.65;;
80127;SDS011;69440;52.118;5.408;2023-07-20T07:11:01;2.80;;;0.77;;
80127;SDS011;69440;52.118;5.408;2023-07-20T07:13:28;3.60;;;1.27;;
80127;SDS011;69440;52.118;5.408;2023-07-20T07:15:54;1.35;;;0.70;;
80127;SDS011;69440;52.118;5.408;2023-07-20T07:18:21;1.88;;;0.82;;
80127;SDS011;69440;52.118;5.408;2023-07-20T07:20:51;1.58;;;0.80;;
80127;SDS011;69440;52.118;5.408;2023-07-20T07:23:18;1.63;;;0.70;;
80127;SDS011;69440;52.118;5.408;2023-07-20T07:25:45;1.40;;;0.70;;
80127;SDS011;69440;52.118;5.408;2023-07-20T07:28:11;1.05;;;0.60;;
80127;SDS011;69440;52.118;5.408;2023-07-20T07:30:38;1.10;;;0.65;;
80127;SDS011;69440;52.118;5.408;2023-07-20T07:33:05;3.53;;;1.17;;
80127;SDS011;69440;52.118;5.408;2023-07-20T07:35:31;2.00;;;0.80;;
80127;SDS011;69440;52.118;5.408;2023-07-20T07:37:58;1.33;;;0.70;;
80127;SDS011;69440;52.118;5.408;2023-07-20T07:40:45;2.00;;;0.90;;
80127;SDS011;69440;52.118;5.408;2023-07-20T07:43:12;2.42;;;0.77;;
80127;SDS011;69440;52.118;5.408;2023-07-20T07:45:40;2.03;;;0.70;;
80127;SDS011;69440;52.118;5.408;2023-07-20T07:48:07;1.50;;;0.73;;
80127;SDS011;69440;52.118;5.408;2023-07-20T07:50:34;2.60;;;0.70;;
80127;SDS011;69440;52.118;5.408;2023-07-20T07:53:01;2.13;;;0.65;;
80127;SDS011;69440;52.118;5.408;2023-07-20T07:55:27;1.08;;;0.70;;
80127;SDS011;69440;52.118;5.408;2023-07-20T07:57:54;1.30;;;0.70;;
80127;SDS011;69440;52.118;5.408;2023-07-20T08:00:20;1.20;;;0.70;;
80127;SDS011;69440;52.118;5.408;2023-07-20T08:02:47;2.28;;;0.65;;
80127;SDS011;69440;52.118;5.408;2023-07-20T08:05:17;2.65;;;0.60;;
80127;SDS011;69440;52.118;5.408;2023-07-20T08:07:43;1.80;;;0.80;;
80127;SDS011;69440;52.118;5.408;2023-07-20T08:10:10;1.83;;;0.70;;
80127;SDS011;69440;52.118;5.408;2023-07-20T08:12:36;3.20;;;0.85;;
80127;SDS011;69440;52.118;5.408;2023-07-20T08:15:03;2.70;;;0.90;;
80127;SDS011;69440;52.118;5.408;2023-07-20T08:17:30;0.63;;;0.57;;
80127;SDS011;69440;52.118;5.408;2023-07-20T08:19:57;1.83;;;0.70;;
80127;SDS011;69440;52.118;5.408;2023-07-20T08:22:23;2.03;;;0.70;;
80127;SDS011;69440;52.118;5.408;2023-07-20T08:24:50;0.80;;;0.60;;
80127;SDS011;69440;52.118;5.408;2023-07-20T08:27:16;1.40;;;0.60;;
80127;SDS011;69440;52.118;5.408;2023-07-20T08:29:43;1.25;;;0.50;;
80127;SDS011;69440;52.118;5.408;2023-07-20T08:32:09;1.58;;;0.77;;
80127;SDS011;69440;52.118;5.408;2023-07-20T08:34:36;1.27;;;0.60;;
80127;SDS011;69440;52.118;5.408;2023-07-20T08:37:02;1.13;;;0.60;;
80127;SDS011;69440;52.118;5.408;2023-07-20T08:39:29;2.05;;;0.93;;
80127;SDS011;69440;52.118;5.408;2023-07-20T08:41:55;1.23;;;0.47;;
80127;SDS011;69440;52.118;5.408;2023-07-20T08:44:25;0.90;;;0.57;;
80127;SDS011;69440;52.118;5.408;2023-07-20T08:46:52;0.63;;;0.38;;
80127;SDS011;69440;52.118;5.408;2023-07-20T08:49:19;1.40;;;0.60;;
80127;SDS011;69440;52.118;5.408;2023-07-20T08:51:46;1.27;;;0.60;;
80127;SDS011;69440;52.118;5.408;2023-07-20T08:54:14;1.17;;;0.40;;
80127;SDS011;69440;52.118;5.408;2023-07-20T08:56:42;0.75;;;0.50;;
80127;SDS011;69440;52.118;5.408;2023-07-20T08:59:12;1.52;;;0.50;;
80127;SDS011;69440;52.118;5.408;2023-07-20T09:01:42;1.45;;;0.70;;
80127;SDS011;69440;52.118;5.408;2023-07-20T09:04:10;0.80;;;0.50;;
80127;SDS011;69440;52.118;5.408;2023-07-20T09:06:38;1.15;;;0.50;;
80127;SDS011;69440;52.118;5.408;2023-07-20T09:09:05;1.20;;;0.50;;
80127;SDS011;69440;52.118;5.408;2023-07-20T09:11:32;1.02;;;0.60;;
80127;SDS011;69440;52.118;5.408;2023-07-20T09:14:02;1.50;;;0.50;;
80127;SDS011;69440;52.118;5.408;2023-07-20T09:16:32;1.55;;;0.57;;
80127;SDS011;69440;52.118;5.408;2023-07-20T09:19:14;0.82;;;0.50;;
80127;SDS011;69440;52.118;5.408;2023-07-20T09:21:43;1.52;;;0.55;;
80127;SDS011;69440;52.118;5.408;2023-07-20T09:24:10;2.20;;;0.55;;
80127;SDS011;69440;52.118;5.408;2023-07-20T09:26:40;1.90;;;0.80;;
80127;SDS011;69440;52.118;5.408;2023-07-20T09:31:36;2.03;;;0.80;;
80127;SDS011;69440;52.118;5.408;2023-07-20T09:34:06;0.70;;;0.50;;
80127;SDS011;69440;52.118;5.408;2023-07-20T09:36:34;0.55;;;0.50;;
80127;SDS011;69440;52.118;5.408;2023-07-20T09:39:04;0.75;;;0.60;;
80127;SDS011;69440;52.118;5.408;2023-07-20T09:41:39;2.55;;;0.50;;
80127;SDS011;69440;52.118;5.408;2023-07-20T09:44:13;0.68;;;0.45;;
80127;SDS011;69440;52.118;5.408;2023-07-20T09:46:48;0.68;;;0.47;;
80127;SDS011;69440;52.118;5.408;2023-07-20T09:49:19;1.50;;;0.70;;
80127;SDS011;69440;52.118;5.408;2023-07-20T09:51:48;0.73;;;0.50;;
80127;SDS011;69440;52.118;5.408;2023-07-20T09:54:16;1.23;;;0.45;;
80127;SDS011;69440;52.118;5.408;2023-07-20T09:56:43;1.10;;;0.57;;
80127;SDS011;69440;52.118;5.408;2023-07-20T09:59:12;1.00;;;0.50;;
80127;SDS011;69440;52.118;5.408;2023-07-20T10:01:38;1.13;;;0.40;;
80127;SDS011;69440;52.118;5.408;2023-07-20T10:04:09;1.05;;;0.40;;
80127;SDS011;69440;52.118;5.408;2023-07-20T10:06:39;1.70;;;0.80;;
80127;SDS011;69440;52.118;5.408;2023-07-20T10:09:09;0.30;;;0.30;;
80127;SDS011;69440;52.118;5.408;2023-07-20T10:11:39;0.50;;;0.40;;
80127;SDS011;69440;52.118;5.408;2023-07-20T10:14:09;0.73;;;0.43;;
80127;SDS011;69440;52.118;5.408;2023-07-20T10:16:43;0.60;;;0.47;;
80127;SDS011;69440;52.118;5.408;2023-07-20T10:19:22;0.65;;;0.40;;
80127;SDS011;69440;52.118;5.408;2023-07-20T10:22:00;0.43;;;0.25;;
80127;SDS011;69440;52.118;5.408;2023-07-20T10:24:30;0.93;;;0.60;;
80127;SDS011;69440;52.118;5.408;2023-07-20T10:26:58;0.85;;;0.47;;
80127;SDS011;69440;52.118;5.408;2023-07-20T10:29:24;1.10;;;0.50;;
80127;SDS011;69440;52.118;5.408;2023-07-20T10:31:54;0.80;;;0.50;;
80127;SDS011;69440;52.118;5.408;2023-07-20T10:34:21;0.98;;;0.50;;
80127;SDS011;69440;52.118;5.408;2023-07-20T10:36:49;1.95;;;0.40;;
80127;SDS011;69440;52.118;5.408;2023-07-20T10:39:24;1.15;;;0.73;;
80127;SDS011;69440;52.118;5.408;2023-07-20T10:42:05;0.70;;;0.52;;
80127;SDS011;69440;52.118;5.408;2023-07-20T10:44:34;0.65;;;0.50;;
80127;SDS011;69440;52.118;5.408;2023-07-20T10:47:08;0.80;;;0.50;;
80127;SDS011;69440;52.118;5.408;2023-07-20T10:49:59;1.02;;;0.40;;
80127;SDS011;69440;52.118;5.408;2023-07-20T10:52:36;2.15;;;0.55;;
80127;SDS011;69440;52.118;5.408;2023-07-20T10:55:16;0.82;;;0.40;;
80127;SDS011;69440;52.118;5.408;2023-07-20T10:57:43;0.82;;;0.40;;
80127;SDS011;69440;52.118;5.408;2023-07-20T11:00:33;1.08;;;0.47;;
80127;SDS011;69440;52.118;5.408;2023-07-20T11:02:59;0.77;;;0.50;;
80127;SDS011;69440;52.118;5.408;2023-07-20T11:05:36;0.95;;;0.60;;
80127;SDS011;69440;52.118;5.408;2023-07-20T11:08:06;0.88;;;0.40;;
80127;SDS011;69440;52.118;5.408;2023-07-20T11:10:39;0.55;;;0.43;;
80127;SDS011;69440;52.118;5.408;2023-07-20T11:13:16;0.93;;;0.32;;
80127;SDS011;69440;52.118;5.408;2023-07-20T11:15:47;0.95;;;0.50;;
80127;SDS011;69440;52.118;5.408;2023-07-20T11:18:26;2.63;;;0.50;;
80127;SDS011;69440;52.118;5.408;2023-07-20T11:20:53;1.33;;;0.60;;
80127;SDS011;69440;52.118;5.408;2023-07-20T11:23:20;0.40;;;0.40;;
80127;SDS011;69440;52.118;5.408;2023-07-20T11:25:47;1.25;;;0.40;;
80127;SDS011;69440;52.118;5.408;2023-07-20T11:28:13;0.40;;;0.30;;
80127;SDS011;69440;52.118;5.408;2023-07-20T11:30:40;1.98;;;0.45;;
80127;SDS011;69440;52.118;5.408;2023-07-20T11:33:10;1.20;;;0.45;;
80127;SDS011;69440;52.118;5.408;2023-07-20T11:35:42;0.68;;;0.43;;
80127;SDS011;69440;52.118;5.408;2023-07-20T11:38:13;1.00;;;0.40;;
80127;SDS011;69440;52.118;5.408;2023-07-20T11:40:46;0.55;;;0.45;;
80127;SDS011;69440;52.118;5.408;2023-07-20T11:43:13;1.33;;;0.43;;
80127;SDS011;69440;52.118;5.408;2023-07-20T11:45:42;1.50;;;0.90;;
80127;SDS011;69440;52.118;5.408;2023-07-20T11:48:14;1.45;;;0.52;;
80127;SDS011;69440;52.118;5.408;2023-07-20T11:50:43;1.52;;;0.40;;
80127;SDS011;69440;52.118;5.408;2023-07-20T11:53:10;1.27;;;0.60;;
80127;SDS011;69440;52.118;5.408;2023-07-20T11:55:38;1.23;;;0.45;;
80127;SDS011;69440;52.118;5.408;2023-07-20T11:58:07;0.82;;;0.40;;
80127;SDS011;69440;52.118;5.408;2023-07-20T12:00:36;0.85;;;0.60;;
80127;SDS011;69440;52.118;5.408;2023-07-20T12:03:05;0.80;;;0.50;;
80127;SDS011;69440;52.118;5.408;2023-07-20T12:05:37;1.10;;;0.47;;
80127;SDS011;69440;52.118;5.408;2023-07-20T12:08:24;1.50;;;0.52;;
80127;SDS011;69440;52.118;5.408;2023-07-20T12:10:51;2.67;;;0.60;;
80127;SDS011;69440;52.118;5.408;2023-07-20T12:13:17;1.00;;;0.60;;
80127;SDS011;69440;52.118;5.408;2023-07-20T12:15:43;0.88;;;0.50;;
80127;SDS011;69440;52.118;5.408;2023-07-20T12:18:10;0.45;;;0.45;;
80127;SDS011;69440;52.118;5.408;2023-07-20T12:20:37;0.70;;;0.40;;
80127;SDS011;69440;52.118;5.408;2023-07-20T12:23:06;2.55;;;0.70;;
80127;SDS011;69440;52.118;5.408;2023-07-20T12:25:45;1.13;;;0.60;;
80127;SDS011;69440;52.118;5.408;2023-07-20T12:30:43;1.60;;;0.47;;
80127;SDS011;69440;52.118;5.408;2023-07-20T12:33:11;1.63;;;0.70;;
80127;SDS011;69440;52.118;5.408;2023-07-20T12:35:42;1.58;;;0.50;;
80127;SDS011;69440;52.118;5.408;2023-07-20T12:38:09;1.50;;;0.50;;
80127;SDS011;69440;52.118;5.408;2023-07-20T12:40:36;1.10;;;0.70;;
80127;SDS011;69440;52.118;5.408;2023-07-20T12:43:02;2.47;;;0.60;;
80127;SDS011;69440;52.118;5.408;2023-07-20T12:45:30;0.80;;;0.70;;
80127;SDS011;69440;52.118;5.408;2023-07-20T12:47:56;0.80;;;0.60;;
80127;SDS011;69440;52.118;5.408;2023-07-20T12:50:23;1.45;;;0.70;;
80127;SDS011;69440;52.118;5.408;2023-07-20T12:52:49;0.90;;;0.60;;
80127;SDS011;69440;52.118;5.408;2023-07-20T12:55:16;1.58;;;0.68;;
80127;SDS011;69440;52.118;5.408;2023-07-20T12:57:43;1.48;;;0.60;;
80127;SDS011;69440;52.118;5.408;2023-07-20T13:00:09;1.70;;;0.70;;
80127;SDS011;69440;52.118;5.408;2023-07-20T13:02:37;2.53;;;0.73;;
80127;SDS011;69440;52.118;5.408;2023-07-20T13:05:04;0.80;;;0.60;;
80127;SDS011;69440;52.118;5.408;2023-07-20T13:07:32;2.17;;;0.70;;
80127;SDS011;69440;52.118;5.408;2023-07-20T13:10:05;1.20;;;0.70;;
80127;SDS011;69440;52.118;5.408;2023-07-20T13:12:33;2.40;;;0.70;;
80127;SDS011;69440;52.118;5.408;2023-07-20T13:15:01;2.30;;;0.75;;
80127;SDS011;69440;52.118;5.408;2023-07-20T13:17:33;2.60;;;0.68;;
80127;SDS011;69440;52.118;5.408;2023-07-20T13:19:59;0.85;;;0.55;;
80127;SDS011;69440;52.118;5.408;2023-07-20T13:22:26;1.92;;;0.82;;
80127;SDS011;69440;52.118;5.408;2023-07-20T13:24:53;1.60;;;0.63;;
80127;SDS011;69440;52.118;5.408;2023-07-20T13:27:20;0.90;;;0.60;;
80127;SDS011;69440;52.118;5.408;2023-07-20T13:29:46;1.45;;;0.90;;
80127;SDS011;69440;52.118;5.408;2023-07-20T13:32:14;1.58;;;0.70;;
80127;SDS011;69440;52.118;5.408;2023-07-20T13:34:41;3.95;;;0.70;;
80127;SDS011;69440;52.118;5.408;2023-07-20T13:37:08;2.25;;;0.90;;
80127;SDS011;69440;52.118;5.408;2023-07-20T13:39:38;1.98;;;0.60;;
80127;SDS011;69440;52.118;5.408;2023-07-20T13:42:05;2.05;;;1.33;;
80127;SDS011;69440;52.118;5.408;2023-07-20T13:44:32;2.15;;;0.57;;
80127;SDS011;69440;52.118;5.408;2023-07-20T13:46:59;2.88;;;0.80;;
80127;SDS011;69440;52.118;5.408;2023-07-20T13:49:45;1.55;;;0.65;;
80127;SDS011;69440;52.118;5.408;2023-07-20T13:52:13;1.40;;;0.70;;
80127;SDS011;69440;52.118;5.408;2023-07-20T13:54:43;2.22;;;0.70;;
80127;SDS011;69440;52.118;5.408;2023-07-20T13:57:16;1.33;;;0.60;;
80127;SDS011;69440;52.118;5.408;2023-07-20T13:59:43;1.70;;;0.70;;
80127;SDS011;69440;52.118;5.408;2023-07-20T14:02:10;1.33;;;0.70;;
80127;SDS011;69440;52.118;5.408;2023-07-20T14:04:39;1.98;;;0.70;;
80127;SDS011;69440;52.118;5.408;2023-07-20T14:07:07;1.23;;;0.70;;
80127;SDS011;69440;52.118;5.408;2023-07-20T14:09:34;1.45;;;0.75;;
80127;SDS011;69440;52.118;5.408;2023-07-20T14:12:01;2.22;;;0.80;;
80127;SDS011;69440;52.118;5.408;2023-07-20T14:14:30;1.98;;;0.75;;
80127;SDS011;69440;52.118;5.408;2023-07-20T14:16:56;1.67;;;0.95;;
80127;SDS011;69440;52.118;5.408;2023-07-20T14:19:23;2.17;;;0.90;;
80127;SDS011;69440;52.118;5.408;2023-07-20T14:21:50;1.27;;;0.60;;
80127;SDS011;69440;52.118;5.408;2023-07-20T14:24:16;2.22;;;0.80;;
80127;SDS011;69440;52.118;5.408;2023-07-20T14:26:44;2.13;;;0.80;;
80127;SDS011;69440;52.118;5.408;2023-07-20T14:29:11;1.10;;;0.73;;
80127;SDS011;69440;52.118;5.408;2023-07-20T14:31:38;2.05;;;0.70;;
80127;SDS011;69440;52.118;5.408;2023-07-20T14:34:04;1.63;;;0.90;;
80127;SDS011;69440;52.118;5.408;2023-07-20T14:36:31;2.30;;;0.80;;
80127;SDS011;69440;52.118;5.408;2023-07-20T14:39:00;1.15;;;0.70;;
80127;SDS011;69440;52.118;5.408;2023-07-20T14:41:26;2.50;;;0.57;;
80127;SDS011;69440;52.118;5.408;2023-07-20T14:43:53;1.95;;;0.73;;
80127;SDS011;69440;52.118;5.408;2023-07-20T14:46:19;1.33;;;0.70;;
80127;SDS011;69440;52.118;5.408;2023-07-20T14:48:47;1.00;;;0.70;;
80127;SDS011;69440;52.118;5.408;2023-07-20T14:51:14;1.98;;;0.80;;
80127;SDS011;69440;52.118;5.408;2023-07-20T14:53:40;2.05;;;0.82;;
80127;SDS011;69440;52.118;5.408;2023-07-20T14:56:07;1.67;;;0.73;;
80127;SDS011;69440;52.118;5.408;2023-07-20T14:58:34;1.73;;;0.80;;
80127;SDS011;69440;52.118;5.408;2023-07-20T15:01:01;2.42;;;0.80;;
80127;SDS011;69440;52.118;5.408;2023-07-20T15:03:29;1.98;;;1.02;;
80127;SDS011;69440;52.118;5.408;2023-07-20T15:05:57;1.17;;;0.70;;
80127;SDS011;69440;52.118;5.408;2023-07-20T15:08:23;3.10;;;0.70;;
80127;SDS011;69440;52.118;5.408;2023-07-20T15:10:50;1.40;;;0.80;;
80127;SDS011;69440;52.118;5.408;2023-07-20T15:13:16;1.15;;;0.70;;